Time,TemperatureF,DewpointF,PressureIn,WindDirection,WindDirectionDegrees,WindSpeedMPH,WindSpeedGustMPH,Humidity,HourlyPrecipIn,Conditions,Clouds,dailyrainin,SoftwareType,DateUTC
2013-02-28 12:53:00,43.9,26.4,29.59,South,178,6.0,35.0,50,0.00,,,0.00,meteohub,2013-02-28 17:53:00,
2013-02-28 12:54:00,43.9,26.4,29.59,South,173,6.0,35.0,50,0.00,,,0.00,meteohub,2013-02-28 17:54:00,
2013-02-28 12:55:00,43.9,26.4,29.59,South,181,5.0,35.0,50,0.00,,,0.00,meteohub,2013-02-28 17:55:00,
2013-02-28 13:02:00,44.6,27.5,29.59,South,182,5.0,5.0,51,0.00,,,0.00,meteohub,2013-02-28 18:02:00,
2013-02-28 13:07:00,45.1,28.6,29.59,South,191,4.0,8.0,52,0.00,,,0.00,meteohub,2013-02-28 18:07:00,
2013-02-28 13:13:00,45.5,29.3,29.59,SW,222,3.0,8.0,53,0.00,,,0.00,meteohub,2013-02-28 18:13:00,
2013-02-28 13:18:00,45.9,29.7,29.56,WSW,241,4.0,6.0,53,0.00,,,0.00,meteohub,2013-02-28 18:18:00,
2013-02-28 13:23:00,46.0,29.8,29.56,SSW,196,3.0,6.0,53,0.00,,,0.00,meteohub,2013-02-28 18:23:00,
2013-02-28 13:28:00,46.0,29.8,29.56,North,7,6.0,7.0,53,0.00,,,0.00,meteohub,2013-02-28 18:28:00,
2013-02-28 13:34:00,45.3,28.2,29.56,SW,226,6.0,7.0,51,0.00,,,0.00,meteohub,2013-02-28 18:34:00,
2013-02-28 13:39:00,45.3,28.2,29.56,West,259,4.0,8.0,51,0.00,,,0.00,meteohub,2013-02-28 18:39:00,
2013-02-28 13:44:00,45.3,28.8,29.56,WSW,257,3.0,8.0,52,0.00,,,0.00,meteohub,2013-02-28 18:44:00,
2013-02-28 13:50:00,46.0,30.4,29.56,North,8,6.0,8.0,54,0.00,,,0.00,meteohub,2013-02-28 18:50:00,
2013-02-28 13:55:00,46.0,29.8,29.56,SW,233,6.0,8.0,53,0.00,,,0.00,meteohub,2013-02-28 18:55:00,
2013-02-28 14:00:00,46.2,30.0,29.56,WNW,296,6.0,8.0,53,0.00,,,0.00,meteohub,2013-02-28 19:00:00,
2013-02-28 14:06:00,46.2,30.0,29.56,SSW,199,4.0,8.0,53,0.00,,,0.00,meteohub,2013-02-28 19:06:00,
2013-02-28 14:11:00,46.2,30.0,29.56,West,280,5.0,8.0,53,0.00,,,0.00,meteohub,2013-02-28 19:11:00,
2013-02-28 14:16:00,46.2,30.0,29.56,West,277,5.0,8.0,53,0.00,,,0.00,meteohub,2013-02-28 19:16:00,
2013-02-28 14:21:00,46.4,29.7,29.56,WNW,298,6.0,8.0,52,0.00,,,0.00,meteohub,2013-02-28 19:21:00,
2013-02-28 14:27:00,46.8,30.0,29.56,NNE,13,6.0,7.0,52,0.00,,,0.00,meteohub,2013-02-28 19:27:00,
2013-02-28 14:32:00,46.9,29.3,29.53,SE,145,5.0,8.0,50,0.00,,,0.00,meteohub,2013-02-28 19:32:00,
2013-02-28 14:37:00,47.1,28.9,29.53,West,278,6.0,8.0,49,0.00,,,0.00,meteohub,2013-02-28 19:37:00,
2013-02-28 14:42:00,46.9,27.7,29.53,West,276,6.0,10.0,47,0.00,,,0.00,meteohub,2013-02-28 19:42:00,
2013-02-28 14:47:00,46.8,27.1,29.53,West,268,4.0,10.0,46,0.00,,,0.00,meteohub,2013-02-28 19:47:00,
2013-02-28 14:52:00,46.4,26.2,29.53,ESE,104,4.0,10.0,45,0.00,,,0.00,meteohub,2013-02-28 19:52:00,
2013-02-28 14:57:00,46.0,25.3,29.53,SW,218,5.0,10.0,44,0.00,,,0.00,meteohub,2013-02-28 19:57:00,
2013-02-28 15:02:00,46.2,25.5,29.53,North,9,6.0,8.0,44,0.00,,,0.00,meteohub,2013-02-28 20:02:00,
2013-02-28 15:07:00,46.0,24.8,29.53,West,278,8.0,8.0,43,0.00,,,0.00,meteohub,2013-02-28 20:07:00,
2013-02-28 15:12:00,46.0,24.3,29.53,WSW,258,6.0,11.0,42,0.00,,,0.00,meteohub,2013-02-28 20:12:00,
2013-02-28 15:17:00,46.0,23.0,29.53,West,260,6.0,11.0,40,0.00,,,0.00,meteohub,2013-02-28 20:17:00,
2013-02-28 15:23:00,46.9,24.4,29.53,WNW,290,8.0,11.0,41,0.00,,,0.00,meteohub,2013-02-28 20:23:00,
2013-02-28 15:28:00,46.9,23.2,29.53,West,280,6.0,11.0,39,0.00,,,0.00,meteohub,2013-02-28 20:28:00,
2013-02-28 15:33:00,46.2,21.9,29.53,NNE,12,5.0,11.0,38,0.00,,,0.00,meteohub,2013-02-28 20:33:00,
2013-02-28 15:38:00,46.0,22.5,29.53,SW,224,6.0,11.0,39,0.00,,,0.00,meteohub,2013-02-28 20:38:00,
2013-02-28 15:44:00,45.5,21.4,29.53,WSW,252,6.0,11.0,38,0.00,,,0.00,meteohub,2013-02-28 20:44:00,
2013-02-28 15:49:00,45.3,21.7,29.53,NNE,22,6.0,11.0,39,0.00,,,0.00,meteohub,2013-02-28 20:49:00,
2013-02-28 15:54:00,45.1,21.7,29.53,WSW,257,5.0,11.0,39,0.00,,,0.00,meteohub,2013-02-28 20:54:00,
2013-02-28 15:59:00,44.8,20.7,29.53,WSW,241,6.0,9.0,38,0.00,,,0.00,meteohub,2013-02-28 20:59:00,
2013-02-28 16:05:00,44.8,20.7,29.53,West,272,5.0,9.0,38,0.00,,,0.00,meteohub,2013-02-28 21:05:00,
2013-02-28 16:10:00,44.6,20.5,29.53,West,278,8.0,11.0,38,0.00,,,0.00,meteohub,2013-02-28 21:10:00,
2013-02-28 16:15:00,44.4,21.0,29.53,WNW,298,6.0,11.0,39,0.00,,,0.00,meteohub,2013-02-28 21:15:00,
2013-02-28 16:20:00,44.2,20.8,29.53,WNW,293,5.0,8.0,39,0.00,,,0.00,meteohub,2013-02-28 21:20:00,
2013-02-28 16:26:00,43.9,20.5,29.53,NNE,17,3.0,8.0,39,0.00,,,0.00,meteohub,2013-02-28 21:26:00,
2013-02-28 16:31:00,43.5,19.6,29.53,West,277,4.0,8.0,38,0.00,,,0.00,meteohub,2013-02-28 21:31:00,
2013-02-28 16:36:00,43.3,19.4,29.53,WNW,294,4.0,8.0,38,0.00,,,0.00,meteohub,2013-02-28 21:36:00,
2013-02-28 16:42:00,42.8,18.9,29.53,West,277,4.0,9.0,38,0.00,,,0.00,meteohub,2013-02-28 21:42:00,
2013-02-28 16:47:00,42.4,19.2,29.53,WNW,284,5.0,8.0,39,0.00,,,0.00,meteohub,2013-02-28 21:47:00,
2013-02-28 16:52:00,42.4,19.2,29.53,West,279,3.0,8.0,39,0.00,,,0.00,meteohub,2013-02-28 21:52:00,
2013-02-28 16:57:00,42.3,19.0,29.53,West,270,2.0,8.0,39,0.00,,,0.00,meteohub,2013-02-28 21:57:00,
2013-02-28 17:02:00,42.3,19.0,29.53,West,262,3.0,5.0,39,0.00,,,0.00,meteohub,2013-02-28 22:02:00,
2013-02-28 17:07:00,42.1,18.9,29.53,WSW,245,4.0,5.0,39,0.00,,,0.00,meteohub,2013-02-28 22:07:00,
2013-02-28 17:12:00,41.9,18.7,29.53,West,279,0.0,5.0,39,0.00,,,0.00,meteohub,2013-02-28 22:12:00,
2013-02-28 17:17:00,41.5,18.5,29.53,SW,217,4.0,5.0,39,0.00,,,0.00,meteohub,2013-02-28 22:17:00,
2013-02-28 17:23:00,41.4,18.3,29.53,SSW,197,0.0,5.0,39,0.00,,,0.00,meteohub,2013-02-28 22:23:00,
2013-02-28 17:28:00,41.2,18.1,29.53,South,185,0.0,4.0,39,0.00,,,0.00,meteohub,2013-02-28 22:28:00,
2013-02-28 17:33:00,40.8,18.3,29.53,SW,235,4.0,4.0,40,0.00,,,0.00,meteohub,2013-02-28 22:33:00,
2013-02-28 17:39:00,40.5,18.0,29.53,WNW,297,3.0,4.0,40,0.00,,,0.00,meteohub,2013-02-28 22:39:00,
2013-02-28 17:44:00,40.5,18.0,29.53,WNW,299,3.0,4.0,40,0.00,,,0.00,meteohub,2013-02-28 22:44:00,
2013-02-28 17:49:00,40.3,18.0,29.53,WNW,292,4.0,4.0,40,0.00,,,0.00,meteohub,2013-02-28 22:49:00,
2013-02-28 17:54:00,40.1,17.8,29.53,North,11,3.0,4.0,40,0.00,,,0.00,meteohub,2013-02-28 22:54:00,
2013-02-28 18:00:00,39.9,17.6,29.53,ESE,120,3.0,4.0,40,0.00,,,0.00,meteohub,2013-02-28 23:00:00,
2013-02-28 18:05:00,39.9,17.6,29.53,East,82,3.0,4.0,40,0.00,,,0.00,meteohub,2013-02-28 23:05:00,
2013-02-28 18:10:00,39.9,17.6,29.53,South,188,3.0,4.0,40,0.00,,,0.00,meteohub,2013-02-28 23:10:00,
2013-02-28 18:15:00,40.1,17.8,29.53,North,11,3.0,4.0,40,0.00,,,0.00,meteohub,2013-02-28 23:15:00,
2013-02-28 18:21:00,40.3,18.0,29.53,WSW,257,3.0,4.0,40,0.00,,,0.00,meteohub,2013-02-28 23:21:00,
2013-02-28 18:26:00,40.3,18.0,29.53,WSW,254,4.0,4.0,40,0.00,,,0.00,meteohub,2013-02-28 23:26:00,
2013-02-28 18:31:00,40.3,18.0,29.53,WSW,250,4.0,4.0,40,0.00,,,0.00,meteohub,2013-02-28 23:31:00,
2013-02-28 18:37:00,40.3,18.0,29.53,West,267,3.0,5.0,40,0.00,,,0.00,meteohub,2013-02-28 23:37:00,
2013-02-28 18:42:00,40.1,17.8,29.53,WNW,282,3.0,5.0,40,0.00,,,0.00,meteohub,2013-02-28 23:42:00,
2013-02-28 18:47:00,40.1,18.3,29.53,West,275,4.0,5.0,41,0.00,,,0.00,meteohub,2013-02-28 23:47:00,
2013-02-28 18:52:00,40.1,18.3,29.53,WNW,283,4.0,5.0,41,0.00,,,0.00,meteohub,2013-02-28 23:52:00,
2013-02-28 18:57:00,40.3,19.0,29.53,West,281,4.0,5.0,42,0.00,,,0.00,meteohub,2013-02-28 23:57:00,
2013-02-28 19:02:00,40.3,19.6,29.53,WNW,298,4.0,6.0,43,0.00,,,0.00,meteohub,2013-03-01 00:02:00,
2013-02-28 19:08:00,40.3,19.6,29.53,NNE,15,5.0,6.0,43,0.00,,,0.00,meteohub,2013-03-01 00:08:00,
2013-02-28 19:13:00,40.5,20.3,29.53,WNW,296,6.0,6.0,44,0.00,,,0.00,meteohub,2013-03-01 00:13:00,
2013-02-28 19:18:00,40.5,20.3,29.53,East,84,3.0,6.0,44,0.00,,,0.00,meteohub,2013-03-01 00:18:00,
2013-02-28 19:23:00,40.5,20.3,29.53,NW,308,4.0,6.0,44,0.00,,,0.00,meteohub,2013-03-01 00:23:00,
2013-02-28 19:29:00,40.5,20.8,29.53,WNW,297,4.0,6.0,45,0.00,,,0.00,meteohub,2013-03-01 00:29:00,
2013-02-28 19:34:00,40.5,20.8,29.53,WNW,302,3.0,5.0,45,0.00,,,0.00,meteohub,2013-03-01 00:34:00,
2013-02-28 19:39:00,40.5,20.8,29.53,WNW,299,3.0,5.0,45,0.00,,,0.00,meteohub,2013-03-01 00:39:00,
2013-02-28 19:44:00,40.5,20.8,29.53,WNW,301,3.0,5.0,45,0.00,,,0.00,meteohub,2013-03-01 00:44:00,
2013-02-28 19:50:00,40.5,20.8,29.53,WNW,303,2.0,5.0,45,0.00,,,0.00,meteohub,2013-03-01 00:50:00,
2013-02-28 19:55:00,40.5,20.8,29.53,NW,304,0.0,4.0,45,0.00,,,0.00,meteohub,2013-03-01 00:55:00,
2013-02-28 20:00:00,40.5,20.8,29.53,WNW,303,0.0,4.0,45,0.00,,,0.00,meteohub,2013-03-01 01:00:00,
2013-02-28 20:06:00,40.5,20.8,29.53,NW,305,0.0,3.0,45,0.00,,,0.00,meteohub,2013-03-01 01:06:00,
2013-02-28 20:11:00,40.3,20.7,29.53,NW,306,0.0,0.0,45,0.00,,,0.00,meteohub,2013-03-01 01:11:00,
2013-02-28 20:16:00,40.3,20.7,29.53,NW,305,0.0,0.0,45,0.00,,,0.00,meteohub,2013-03-01 01:16:00,
2013-02-28 20:21:00,40.3,20.7,29.53,NW,305,0.0,0.0,45,0.00,,,0.00,meteohub,2013-03-01 01:21:00,
2013-02-28 20:27:00,40.3,20.7,29.53,NW,305,0.0,0.0,45,0.00,,,0.00,meteohub,2013-03-01 01:27:00,
2013-02-28 20:32:00,40.3,20.7,29.53,NW,305,0.0,0.0,45,0.00,,,0.00,meteohub,2013-03-01 01:32:00,
2013-02-28 20:37:00,40.1,20.5,29.53,NW,306,0.0,0.0,45,0.00,,,0.00,meteohub,2013-03-01 01:37:00,
2013-02-28 20:42:00,39.9,20.3,29.53,NW,305,0.0,0.0,45,0.00,,,0.00,meteohub,2013-03-01 01:42:00,
2013-02-28 20:47:00,39.9,20.3,29.53,NW,306,0.0,0.0,45,0.00,,,0.00,meteohub,2013-03-01 01:47:00,
2013-02-28 20:52:00,39.9,20.3,29.53,NW,305,0.0,0.0,45,0.00,,,0.00,meteohub,2013-03-01 01:52:00,
2013-02-28 20:57:00,39.9,20.3,29.53,NW,305,0.0,0.0,45,0.00,,,0.00,meteohub,2013-03-01 01:57:00,
2013-02-28 21:02:00,39.9,20.8,29.53,NW,305,0.0,0.0,46,0.00,,,0.00,meteohub,2013-03-01 02:02:00,
2013-02-28 21:07:00,39.9,20.8,29.53,NW,305,0.0,0.0,46,0.00,,,0.00,meteohub,2013-03-01 02:07:00,
2013-02-28 21:13:00,39.9,20.8,29.53,NW,306,0.0,0.0,46,0.00,,,0.00,meteohub,2013-03-01 02:13:00,
2013-02-28 21:18:00,39.9,20.8,29.53,NW,305,0.0,0.0,46,0.00,,,0.00,meteohub,2013-03-01 02:18:00,
2013-02-28 21:23:00,39.9,20.8,29.53,NW,305,0.0,0.0,46,0.00,,,0.00,meteohub,2013-03-01 02:23:00,
2013-02-28 21:28:00,39.9,20.8,29.53,NW,305,0.0,0.0,46,0.00,,,0.00,meteohub,2013-03-01 02:28:00,
2013-02-28 21:34:00,39.7,20.7,29.53,NW,305,0.0,0.0,46,0.00,,,0.00,meteohub,2013-03-01 02:34:00,
2013-02-28 21:39:00,39.7,20.7,29.53,WNW,303,0.0,0.0,46,0.00,,,0.00,meteohub,2013-03-01 02:39:00,
2013-02-28 21:44:00,39.9,22.3,29.53,SSW,209,6.0,0.0,49,0.00,,,0.00,meteohub,2013-03-01 02:44:00,
2013-02-28 21:50:00,40.1,23.0,29.53,SSW,206,5.0,5.0,50,0.00,,,0.00,meteohub,2013-03-01 02:50:00,
2013-02-28 21:55:00,39.9,22.8,29.53,SSW,205,3.0,6.0,50,0.00,,,0.00,meteohub,2013-03-01 02:55:00,
2013-02-28 22:00:00,40.1,23.0,29.53,SSW,206,3.0,6.0,50,0.00,,,0.00,meteohub,2013-03-01 03:00:00,
2013-02-28 22:05:00,39.9,22.8,29.53,SSW,206,3.0,6.0,50,0.00,,,0.00,meteohub,2013-03-01 03:05:00,
2013-02-28 22:11:00,40.1,23.0,29.53,SSW,206,0.0,4.0,50,0.00,,,0.00,meteohub,2013-03-01 03:11:00,
2013-02-28 22:16:00,40.1,23.0,29.53,SSW,206,0.0,3.0,50,0.00,,,0.00,meteohub,2013-03-01 03:16:00,
2013-02-28 22:21:00,40.1,23.0,29.53,SSW,206,0.0,2.0,50,0.00,,,0.00,meteohub,2013-03-01 03:21:00,
2013-02-28 22:26:00,40.3,23.2,29.53,SSW,206,0.0,0.0,50,0.00,,,0.00,meteohub,2013-03-01 03:26:00,
2013-02-28 22:32:00,40.1,23.0,29.50,SSW,206,0.0,0.0,50,0.00,,,0.00,meteohub,2013-03-01 03:32:00,
2013-02-28 22:37:00,40.1,23.0,29.50,SSW,206,0.0,0.0,50,0.00,,,0.00,meteohub,2013-03-01 03:37:00,
2013-02-28 22:42:00,40.1,23.0,29.50,SSW,206,0.0,0.0,50,0.00,,,0.00,meteohub,2013-03-01 03:42:00,
2013-02-28 22:48:00,40.1,23.0,29.50,SSW,206,0.0,0.0,50,0.00,,,0.00,meteohub,2013-03-01 03:48:00,
2013-02-28 22:53:00,39.9,22.8,29.50,SSW,206,0.0,0.0,50,0.00,,,0.00,meteohub,2013-03-01 03:53:00,
2013-02-28 22:58:00,39.9,22.8,29.50,SSW,206,0.0,0.0,50,0.00,,,0.00,meteohub,2013-03-01 03:58:00,
2013-02-28 23:03:00,39.7,22.6,29.50,SSW,206,0.0,0.0,50,0.00,,,0.00,meteohub,2013-03-01 04:03:00,
2013-02-28 23:09:00,39.4,22.3,29.50,SSW,199,3.0,4.0,50,0.00,,,0.00,meteohub,2013-03-01 04:09:00,
2013-02-28 23:14:00,39.4,22.8,29.50,SSW,199,5.0,5.0,51,0.00,,,0.00,meteohub,2013-03-01 04:14:00,
2013-02-28 23:19:00,39.4,23.2,29.50,SSW,199,4.0,5.0,52,0.00,,,0.00,meteohub,2013-03-01 04:19:00,
2013-02-28 23:24:00,39.7,24.1,29.50,SSW,208,6.0,6.0,53,0.00,,,0.00,meteohub,2013-03-01 04:24:00,
2013-02-28 23:30:00,39.7,24.4,29.50,SSW,210,4.0,6.0,54,0.00,,,0.00,meteohub,2013-03-01 04:30:00,
2013-02-28 23:35:00,39.7,25.0,29.50,SSW,208,3.0,6.0,55,0.00,,,0.00,meteohub,2013-03-01 04:35:00,
2013-02-28 23:40:00,39.9,25.5,29.50,SW,220,5.0,6.0,56,0.00,,,0.00,meteohub,2013-03-01 04:40:00,
2013-02-28 23:46:00,39.9,25.5,29.50,SSW,206,5.0,6.0,56,0.00,,,0.00,meteohub,2013-03-01 04:46:00,
2013-02-28 23:51:00,40.1,26.1,29.50,SW,214,6.0,8.0,57,0.00,,,0.00,meteohub,2013-03-01 04:51:00,
2013-02-28 23:56:00,40.1,26.6,29.50,SSW,204,6.0,8.0,58,0.00,,,0.00,meteohub,2013-03-01 04:56:00,